createdAt,value
2022-09-12T00:01:33.603Z,91.80
2022-09-12T00:04:02.588Z,91.67
2022-09-12T00:06:34.281Z,91.57
2022-09-12T00:09:08.951Z,91.54
2022-09-12T00:11:43.982Z,91.59
2022-09-12T00:14:16.438Z,91.54
2022-09-12T00:16:47.571Z,91.32
2022-09-12T00:19:16.452Z,91.30
2022-09-12T00:21:46.595Z,91.13
2022-09-12T00:24:14.208Z,91.06
2022-09-12T00:26:43.210Z,91.02
2022-09-12T00:29:21.740Z,90.88
2022-09-12T00:31:49.945Z,90.87
2022-09-12T00:34:18.155Z,90.91
2022-09-12T00:36:45.718Z,90.80
2022-09-12T00:39:16.944Z,90.70
2022-09-12T00:41:47.322Z,90.53
2022-09-12T00:44:16.934Z,90.50
2022-09-12T00:46:56.168Z,90.40
2022-09-12T00:49:41.944Z,90.30
2022-09-12T00:52:26.518Z,90.15
2022-09-12T00:55:13.179Z,90.07
2022-09-12T00:57:50.131Z,90.09
2022-09-12T01:00:23.521Z,90.03
2022-09-12T01:03:21.343Z,89.91
2022-09-12T01:06:09.969Z,89.72
2022-09-12T01:08:40.827Z,89.62
2022-09-12T01:11:13.730Z,89.60
2022-09-12T01:13:44.054Z,89.61
2022-09-12T01:16:13.542Z,89.46
2022-09-12T01:19:12.693Z,89.48
2022-09-12T01:22:04.928Z,89.50
2022-09-12T01:25:02.275Z,89.34
2022-09-12T01:28:06.302Z,89.44
2022-09-12T01:31:24.652Z,89.47
2022-09-12T01:34:28.379Z,89.44
2022-09-12T01:37:25.921Z,89.46
2022-09-12T01:40:23.796Z,89.41
2022-09-12T01:43:18.430Z,89.37
2022-09-12T01:46:07.851Z,89.31
2022-09-12T01:48:41.087Z,89.23
2022-09-12T01:51:35.597Z,89.18
2022-09-12T01:54:38.408Z,89.05
2022-09-12T01:57:19.153Z,89.06
2022-09-12T01:59:54.719Z,89.07
2022-09-12T02:02:36.394Z,89.07
2022-09-12T02:05:20.403Z,89.09
2022-09-12T02:07:56.868Z,89.14
2022-09-12T02:10:32.557Z,89.12
2022-09-12T02:13:19.747Z,89.12
2022-09-12T02:15:58.542Z,89.07
2022-09-12T02:18:29.767Z,89.27
2022-09-12T02:20:59.880Z,89.18
2022-09-12T02:23:35.147Z,88.99
2022-09-12T02:26:28.906Z,89.12
2022-09-12T02:29:00.103Z,89.15
2022-09-12T02:31:47.289Z,89.19
2022-09-12T02:34:25.392Z,89.25
2022-09-12T02:37:38.453Z,89.25
2022-09-12T02:40:09.953Z,89.19
2022-09-12T02:42:42.274Z,89.30
2022-09-12T02:45:12.011Z,89.46
2022-09-12T02:48:17.759Z,89.47
2022-09-12T02:50:47.398Z,89.49
2022-09-12T02:53:15.035Z,89.50
2022-09-12T02:55:44.330Z,89.60
2022-09-12T02:58:19.010Z,89.58
2022-09-12T03:00:59.699Z,89.47
2022-09-12T03:03:50.003Z,89.47
2022-09-12T03:06:28.685Z,89.60
2022-09-12T03:09:25.927Z,89.58
2022-09-12T03:12:08.488Z,89.61
2022-09-12T03:14:47.434Z,89.59
2022-09-12T03:17:41.648Z,89.59
2022-09-12T03:20:21.035Z,89.62
2022-09-12T03:22:56.031Z,89.68
2022-09-12T03:25:32.413Z,89.61
2022-09-12T03:28:07.751Z,89.58
2022-09-12T03:30:41.537Z,89.56
2022-09-12T03:33:16.601Z,89.51
2022-09-12T03:35:44.930Z,89.53
2022-09-12T03:38:12.350Z,89.50
2022-09-12T03:40:39.787Z,89.37
2022-09-12T03:43:09.940Z,89.59
2022-09-12T03:45:37.784Z,89.54
2022-09-12T03:48:06.956Z,89.67
2022-09-12T03:50:35.550Z,89.73
2022-09-12T03:53:04.009Z,89.73
2022-09-12T03:55:30.930Z,89.76
2022-09-12T03:58:01.091Z,89.66
2022-09-12T04:00:28.421Z,89.42
2022-09-12T04:02:58.316Z,89.72
2022-09-12T04:05:26.031Z,89.67
2022-09-12T04:07:53.715Z,89.68
2022-09-12T04:10:20.969Z,89.69
2022-09-12T04:12:49.968Z,89.55
2022-09-12T04:15:19.341Z,89.69
2022-09-12T04:17:46.859Z,89.68
2022-09-12T04:20:15.161Z,89.92
2022-09-12T04:22:44.293Z,89.89
2022-09-12T04:25:13.292Z,89.89
2022-09-12T04:27:43.515Z,89.82
2022-09-12T04:30:12.610Z,89.89
2022-09-12T04:32:40.965Z,89.98
2022-09-12T04:35:07.865Z,90.04
2022-09-12T04:37:36.491Z,90.02
2022-09-12T04:40:03.742Z,90.10
2022-09-12T04:42:32.726Z,90.02
2022-09-12T04:45:00.765Z,90.09
2022-09-12T04:47:28.939Z,90.05
2022-09-12T04:49:59.572Z,90.05
2022-09-12T04:52:27.433Z,90.05
2022-09-12T04:54:55.709Z,90.00
2022-09-12T04:57:24.450Z,90.13
2022-09-12T04:59:51.375Z,89.90
2022-09-12T05:02:18.020Z,90.11
2022-09-12T05:04:46.455Z,89.96
2022-09-12T05:07:16.650Z,90.04
2022-09-12T05:09:43.520Z,89.96
2022-09-12T05:12:12.946Z,90.02
2022-09-12T05:14:41.361Z,90.09
2022-09-12T05:17:08.940Z,89.96
2022-09-12T05:19:36.505Z,89.93
2022-09-12T05:22:04.466Z,89.81
2022-09-12T05:24:32.095Z,89.67
2022-09-12T05:27:00.224Z,89.61
2022-09-12T05:29:29.295Z,89.38
2022-09-12T05:31:59.138Z,89.39
2022-09-12T05:34:27.317Z,89.18
2022-09-12T05:36:53.940Z,89.16
2022-09-12T05:39:22.416Z,89.09
2022-09-12T05:41:50.368Z,89.02
2022-09-12T05:44:17.678Z,88.97
2022-09-12T05:46:50.232Z,88.88
2022-09-12T05:49:18.714Z,88.97
2022-09-12T05:51:46.714Z,88.59
2022-09-12T05:54:18.122Z,88.27
2022-09-12T05:56:45.180Z,87.99
2022-09-12T05:59:19.354Z,87.99
2022-09-12T06:01:47.219Z,88.01
2022-09-12T06:04:15.873Z,87.39
2022-09-12T06:06:47.095Z,87.03
2022-09-12T06:09:16.521Z,86.56
2022-09-12T06:11:44.965Z,86.21
2022-09-12T06:14:14.589Z,85.63
2022-09-12T06:16:41.553Z,85.68
2022-09-12T06:19:20.206Z,85.50
2022-09-12T06:21:48.958Z,85.32
2022-09-12T06:24:17.399Z,85.13
2022-09-12T06:26:44.958Z,85.25
2022-09-12T06:29:12.620Z,85.03
2022-09-12T06:31:41.050Z,84.61
2022-09-12T06:34:10.820Z,84.66
2022-09-12T06:36:45.277Z,84.51
2022-09-12T06:39:22.942Z,83.83
2022-09-12T06:41:51.387Z,83.38
2022-09-12T06:44:23.337Z,83.16
2022-09-12T06:46:50.059Z,83.38
2022-09-12T06:49:19.549Z,82.94
2022-09-12T06:51:52.744Z,82.73
2022-09-12T06:54:21.770Z,82.22
2022-09-12T06:56:49.907Z,81.06
2022-09-12T06:59:16.587Z,80.80
2022-09-12T07:01:44.216Z,80.70
2022-09-12T07:04:11.096Z,80.47
2022-09-12T07:06:40.028Z,80.54
2022-09-12T07:09:08.630Z,79.46
2022-09-12T07:11:37.403Z,79.03
2022-09-12T07:14:12.707Z,78.60
2022-09-12T07:16:39.766Z,78.63
2022-09-12T07:19:07.481Z,78.61
2022-09-12T07:21:39.105Z,78.00
2022-09-12T07:24:08.185Z,77.96
2022-09-12T07:26:36.495Z,76.60
2022-09-12T07:29:32.207Z,76.00
2022-09-12T07:31:50.018Z,76.20
2022-09-12T07:34:17.313Z,75.54
2022-09-12T07:36:44.627Z,75.15
2022-09-12T07:39:12.976Z,75.55
2022-09-12T07:41:39.463Z,75.38
2022-09-12T07:44:07.571Z,73.12
2022-09-12T07:46:35.048Z,72.50
2022-09-12T07:49:02.966Z,72.30
2022-09-12T07:51:31.183Z,72.04
2022-09-12T07:53:58.584Z,72.73
2022-09-12T07:56:30.235Z,72.80
2022-09-12T07:58:58.875Z,72.88
2022-09-12T08:01:26.294Z,72.47
2022-09-12T08:03:56.339Z,72.43
2022-09-12T08:06:24.573Z,71.74
2022-09-12T08:08:54.227Z,70.70
2022-09-12T08:11:23.752Z,70.54
2022-09-12T08:13:55.402Z,70.30
2022-09-12T08:16:27.789Z,69.60
2022-09-12T08:18:55.242Z,69.11
2022-09-12T08:21:27.048Z,69.10
2022-09-12T08:23:56.588Z,68.85
2022-09-12T08:26:24.157Z,67.94
2022-09-12T08:28:52.681Z,68.31
2022-09-12T08:31:21.048Z,68.11
2022-09-12T08:33:48.450Z,66.56
2022-09-12T08:36:22.292Z,66.89
2022-09-12T08:38:59.084Z,65.08
2022-09-12T08:41:40.972Z,64.57
2022-09-12T08:44:26.282Z,65.02
2022-09-12T08:47:15.464Z,63.84
2022-09-12T08:49:52.470Z,63.67
2022-09-12T08:52:23.472Z,64.16
2022-09-12T08:54:50.109Z,62.54
2022-09-12T08:57:19.653Z,62.41
2022-09-12T08:59:47.828Z,61.70
2022-09-12T09:03:02.516Z,61.44
2022-09-12T09:05:47.081Z,62.10
2022-09-12T09:08:37.601Z,62.07
2022-09-12T09:11:07.117Z,61.95
2022-09-12T09:14:18.741Z,62.57
2022-09-12T09:16:50.036Z,62.73
2022-09-12T09:19:24.897Z,62.73
2022-09-12T09:22:02.827Z,62.63
2022-09-12T09:24:52.864Z,62.87
2022-09-12T09:27:39.751Z,63.70
2022-09-12T09:30:19.583Z,63.46
2022-09-12T09:32:53.041Z,63.16
2022-09-12T09:35:22.506Z,62.87
2022-09-12T09:38:05.557Z,63.50
2022-09-12T09:40:50.817Z,63.68
2022-09-12T09:43:23.949Z,62.72
2022-09-12T09:45:52.477Z,61.96
2022-09-12T09:48:27.417Z,62.46
2022-09-12T09:50:56.809Z,61.56
2022-09-12T09:53:45.868Z,60.48
2022-09-12T09:56:30.000Z,59.08
2022-09-12T09:58:57.747Z,60.00
2022-09-12T10:01:27.299Z,60.70
2022-09-12T10:03:55.717Z,59.43
2022-09-12T10:06:31.216Z,58.51
2022-09-12T10:09:16.958Z,58.84
2022-09-12T10:11:46.065Z,58.36
2022-09-12T10:14:37.156Z,56.53
2022-09-12T10:17:24.451Z,57.20
2022-09-12T10:20:04.841Z,56.91
2022-09-12T10:22:46.837Z,56.53
2022-09-12T10:25:17.657Z,56.96
2022-09-12T10:27:44.286Z,55.87
2022-09-12T10:30:14.031Z,55.81
2022-09-12T10:32:43.508Z,56.30
2022-09-12T10:35:21.218Z,56.33
2022-09-12T10:37:57.843Z,55.92
2022-09-12T10:40:27.913Z,55.95
2022-09-12T10:42:59.541Z,55.72
2022-09-12T10:45:32.050Z,55.80
2022-09-12T10:48:05.459Z,55.26
2022-09-12T10:50:41.288Z,55.94
2022-09-12T10:53:18.290Z,54.90
2022-09-12T10:56:12.123Z,54.11
2022-09-12T10:58:59.259Z,54.55
2022-09-12T11:01:31.703Z,54.83
2022-09-12T11:04:16.264Z,53.85
2022-09-12T11:06:51.535Z,52.65
2022-09-12T11:09:43.060Z,51.94
2022-09-12T11:12:25.195Z,51.76
2022-09-12T11:15:02.134Z,52.48
2022-09-12T11:17:49.648Z,52.78
2022-09-12T11:20:25.964Z,52.46
2022-09-12T11:23:11.446Z,52.39
2022-09-12T11:26:03.893Z,52.77
2022-09-12T11:28:36.988Z,53.32
2022-09-12T11:31:48.867Z,52.78
2022-09-12T11:34:45.118Z,52.74
2022-09-12T11:37:23.434Z,51.31
2022-09-12T11:39:55.412Z,49.19
2022-09-12T11:42:30.022Z,49.56
2022-09-12T11:45:13.193Z,50.05
2022-09-12T11:47:41.043Z,50.01
2022-09-12T11:50:22.769Z,48.04
2022-09-12T11:52:51.005Z,46.76
2022-09-12T11:55:22.933Z,47.56
2022-09-12T11:58:03.117Z,48.03
2022-09-12T12:00:58.553Z,48.79
2022-09-12T12:03:36.624Z,48.88
2022-09-12T12:06:20.824Z,48.87
2022-09-12T12:08:49.967Z,48.88
2022-09-12T12:11:32.245Z,49.37
2022-09-12T12:14:07.491Z,50.12
2022-09-12T12:16:38.105Z,50.44
2022-09-12T12:19:31.788Z,50.42
2022-09-12T12:22:06.514Z,50.44
2022-09-12T12:24:37.075Z,50.82
2022-09-12T12:27:21.906Z,50.27
2022-09-12T12:29:48.879Z,50.16
2022-09-12T12:32:16.207Z,50.23
2022-09-12T12:34:45.041Z,50.17
2022-09-12T12:37:27.463Z,49.93
2022-09-12T12:40:22.765Z,49.90
2022-09-12T12:42:50.009Z,48.34
2022-09-12T12:45:19.330Z,47.58
2022-09-12T12:47:49.659Z,46.97
2022-09-12T12:50:15.902Z,46.67
2022-09-12T12:52:45.095Z,45.62
2022-09-12T12:55:25.800Z,44.46
2022-09-12T12:57:55.351Z,44.69
2022-09-12T13:00:31.686Z,45.42
2022-09-12T13:03:09.133Z,45.76
2022-09-12T13:05:47.208Z,46.19
2022-09-12T13:08:16.340Z,46.19
2022-09-12T13:11:15.041Z,45.88
2022-09-12T13:13:53.030Z,46.07
2022-09-12T13:16:55.289Z,46.24
2022-09-12T13:19:28.589Z,46.65
2022-09-12T13:22:07.044Z,47.41
2022-09-12T13:24:43.162Z,48.01
2022-09-12T13:27:24.781Z,48.83
2022-09-12T13:30:08.822Z,49.27
2022-09-12T13:32:35.444Z,49.05
2022-09-12T13:35:22.272Z,49.53
2022-09-12T13:38:02.546Z,49.50
2022-09-12T13:41:01.090Z,49.72
2022-09-12T13:43:43.868Z,50.15
2022-09-12T13:46:15.970Z,50.25
2022-09-12T13:48:43.608Z,50.15
2022-09-12T13:51:24.489Z,50.31
2022-09-12T13:53:55.538Z,50.33
2022-09-12T13:56:22.979Z,50.75
2022-09-12T13:58:57.628Z,50.46
2022-09-12T14:01:37.127Z,50.18
2022-09-12T14:04:32.190Z,49.95
2022-09-12T14:07:01.681Z,49.67
2022-09-12T14:09:32.173Z,49.21
2022-09-12T14:12:00.386Z,49.50
2022-09-12T14:14:35.962Z,49.18
2022-09-12T14:17:32.161Z,48.78
2022-09-12T14:20:11.112Z,46.93
2022-09-12T14:22:38.287Z,46.55
2022-09-12T14:25:09.580Z,46.27
2022-09-12T14:27:46.733Z,45.98
2022-09-12T14:30:32.195Z,45.35
2022-09-12T14:33:10.779Z,45.26
2022-09-12T14:35:41.424Z,45.42
2022-09-12T14:38:23.212Z,45.57
2022-09-12T14:41:05.581Z,46.19
2022-09-12T14:43:38.372Z,45.99
2022-09-12T14:46:19.242Z,46.06
2022-09-12T14:48:50.667Z,46.45
2022-09-12T14:51:30.438Z,46.47
2022-09-12T14:53:58.845Z,47.17
2022-09-12T14:56:54.679Z,47.38
2022-09-12T14:59:36.047Z,47.41
2022-09-12T15:02:22.545Z,47.78
2022-09-12T15:04:54.640Z,47.86
2022-09-12T15:07:24.655Z,48.13
2022-09-12T15:09:51.699Z,48.47
2022-09-12T15:12:18.442Z,48.67
2022-09-12T15:14:44.973Z,49.19
2022-09-12T15:17:11.251Z,49.44
2022-09-12T15:19:37.852Z,49.81
2022-09-12T15:22:04.629Z,50.22
2022-09-12T15:24:31.127Z,50.32
2022-09-12T15:26:58.028Z,50.50
2022-09-12T15:29:24.391Z,50.80
2022-09-12T15:31:51.434Z,51.19
2022-09-12T15:34:19.042Z,51.33
2022-09-12T15:36:45.389Z,51.34
2022-09-12T15:39:11.821Z,51.39
2022-09-12T15:41:39.335Z,51.46
2022-09-12T15:44:10.442Z,51.65
2022-09-12T15:46:37.596Z,51.83
2022-09-12T15:49:04.386Z,51.99
2022-09-12T15:51:31.261Z,51.83
2022-09-12T15:53:57.666Z,52.07
2022-09-12T15:56:24.312Z,52.36
2022-09-12T15:58:58.687Z,52.65
2022-09-12T16:01:27.420Z,53.00
2022-09-12T16:03:54.090Z,53.37
2022-09-12T16:06:21.561Z,53.50
2022-09-12T16:08:48.477Z,53.68
2022-09-12T16:11:27.208Z,53.66
2022-09-12T16:13:56.520Z,53.91
2022-09-12T16:16:23.529Z,53.94
2022-09-12T16:18:50.115Z,54.26
2022-09-12T16:21:17.161Z,54.59
2022-09-12T16:23:44.579Z,54.99
2022-09-12T16:26:11.018Z,55.22
2022-09-12T16:28:38.833Z,55.38
2022-09-12T16:31:07.249Z,55.73
2022-09-12T16:33:34.179Z,56.03
2022-09-12T16:36:06.834Z,56.10
2022-09-12T16:38:35.600Z,56.59
2022-09-12T16:41:04.969Z,56.74
2022-09-12T16:43:34.785Z,57.01
2022-09-12T16:46:02.761Z,57.09
2022-09-12T16:48:29.699Z,57.48
2022-09-12T16:51:03.368Z,57.61
2022-09-12T16:53:34.637Z,57.77
2022-09-12T16:56:01.670Z,58.05
2022-09-12T16:58:32.216Z,58.36
2022-09-12T17:01:04.668Z,58.47
2022-09-12T17:03:31.441Z,58.69
2022-09-12T17:06:15.901Z,59.07
2022-09-12T17:08:45.015Z,59.47
2022-09-12T17:11:24.648Z,59.87
2022-09-12T17:14:07.875Z,60.22
2022-09-12T17:16:42.862Z,60.64
2022-09-12T17:19:14.365Z,60.99
2022-09-12T17:21:41.055Z,61.15
2022-09-12T17:24:07.639Z,61.45
2022-09-12T17:26:34.536Z,61.64
2022-09-12T17:29:01.404Z,61.98
2022-09-12T17:31:28.543Z,62.68
2022-09-12T17:33:57.802Z,63.15
2022-09-12T17:36:25.750Z,63.40
2022-09-12T17:38:53.772Z,63.61
2022-09-12T17:41:23.134Z,63.91
2022-09-12T17:43:52.162Z,64.05
2022-09-12T17:46:20.528Z,64.37
2022-09-12T17:48:55.030Z,64.69
2022-09-12T17:51:24.333Z,64.94
2022-09-12T17:54:09.961Z,65.15
2022-09-12T17:56:36.496Z,65.46
2022-09-12T17:59:04.787Z,65.81
2022-09-12T18:01:50.109Z,66.07
2022-09-12T18:04:17.352Z,66.39
2022-09-12T18:06:49.740Z,66.06
2022-09-12T18:09:24.686Z,66.11
2022-09-12T18:11:52.245Z,66.19
2022-09-12T18:14:19.848Z,66.24
2022-09-12T18:16:47.864Z,66.42
2022-09-12T18:19:15.621Z,66.57
2022-09-12T18:21:41.980Z,66.73
2022-09-12T18:24:09.534Z,66.81
2022-09-12T18:26:39.375Z,67.11
2022-09-12T18:29:06.412Z,67.58
2022-09-12T18:31:33.745Z,67.92
2022-09-12T18:34:00.489Z,68.22
2022-09-12T18:36:27.490Z,68.32
2022-09-12T18:38:54.703Z,68.51
2022-09-12T18:41:22.772Z,68.59
2022-09-12T18:43:54.058Z,68.81
2022-09-12T18:46:21.055Z,68.98
2022-09-12T18:48:47.594Z,69.57
2022-09-12T18:51:21.141Z,69.68
2022-09-12T18:53:54.644Z,69.97
2022-09-12T18:56:32.573Z,70.28
2022-09-12T18:59:01.693Z,70.46
2022-09-12T19:01:32.790Z,70.78
2022-09-12T19:04:06.477Z,70.96
2022-09-12T19:06:40.747Z,71.30
2022-09-12T19:09:08.650Z,71.57
2022-09-12T19:11:41.904Z,71.86
2022-09-12T19:14:08.326Z,72.24
2022-09-12T19:16:35.184Z,72.52
2022-09-12T19:19:02.628Z,72.74
2022-09-12T19:21:30.335Z,72.89
2022-09-12T19:24:03.901Z,72.98
2022-09-12T19:26:31.691Z,73.24
2022-09-12T19:29:01.902Z,73.34
2022-09-12T19:31:30.014Z,73.31
2022-09-12T19:34:01.347Z,73.52
2022-09-12T19:36:44.251Z,73.78
2022-09-12T19:39:13.110Z,74.03
2022-09-12T19:41:39.769Z,74.22
2022-09-12T19:44:06.423Z,74.35
2022-09-12T19:46:33.501Z,74.54
2022-09-12T19:49:00.741Z,74.80
2022-09-12T19:51:27.338Z,74.98
2022-09-12T19:53:55.185Z,75.11
2022-09-12T19:56:24.689Z,75.27
2022-09-12T19:58:56.119Z,75.60
2022-09-12T20:01:29.654Z,75.83
2022-09-12T20:03:57.294Z,76.11
2022-09-12T20:06:25.788Z,76.38
2022-09-12T20:08:54.696Z,76.72
2022-09-12T20:11:24.122Z,77.11
2022-09-12T20:13:51.097Z,77.43
2022-09-12T20:16:22.437Z,77.67
2022-09-12T20:18:59.810Z,77.57
2022-09-12T20:21:32.444Z,77.36
2022-09-12T20:24:08.589Z,77.60
2022-09-12T20:26:35.923Z,77.67
2022-09-12T20:29:04.969Z,78.02
2022-09-12T20:31:33.224Z,78.21
2022-09-12T20:33:59.922Z,78.45
2022-09-12T20:36:27.206Z,78.73
2022-09-12T20:39:00.610Z,79.26
2022-09-12T20:41:29.045Z,79.20
2022-09-12T20:43:56.378Z,79.04
2022-09-12T20:46:27.053Z,79.13
2022-09-12T20:48:53.949Z,79.41
2022-09-12T20:51:21.875Z,79.54
2022-09-12T20:53:56.893Z,79.94
2022-09-12T20:56:26.555Z,80.24
2022-09-12T20:58:54.311Z,80.29
2022-09-12T21:01:21.830Z,80.45
2022-09-12T21:03:48.987Z,80.58
2022-09-12T21:06:18.580Z,80.58
2022-09-12T21:08:47.371Z,80.61
2022-09-12T21:11:15.068Z,80.76
2022-09-12T21:13:42.531Z,80.98
2022-09-12T21:16:15.193Z,81.09
2022-09-12T21:18:42.391Z,81.17
2022-09-12T21:21:12.978Z,81.25
2022-09-12T21:23:41.115Z,81.37
2022-09-12T21:26:09.112Z,81.45
2022-09-12T21:28:39.455Z,81.70
2022-09-12T21:31:06.452Z,81.52
2022-09-12T21:33:33.672Z,81.29
2022-09-12T21:36:02.975Z,81.48
2022-09-12T21:38:31.609Z,81.57
2022-09-12T21:41:10.176Z,82.00
2022-09-12T21:43:38.180Z,82.33
2022-09-12T21:46:05.602Z,82.37
2022-09-12T21:48:32.388Z,82.46
2022-09-12T21:50:59.155Z,82.43
2022-09-12T21:53:25.721Z,82.64
2022-09-12T21:55:52.865Z,82.55
2022-09-12T21:58:20.125Z,82.66
2022-09-12T22:00:47.445Z,82.73
2022-09-12T22:03:15.315Z,82.68
2022-09-12T22:05:42.633Z,82.92
2022-09-12T22:08:10.795Z,82.85
2022-09-12T22:10:38.146Z,82.84
2022-09-12T22:13:06.971Z,83.44
2022-09-12T22:15:40.403Z,83.88
2022-09-12T22:18:08.113Z,84.01
2022-09-12T22:20:36.200Z,84.06
2022-09-12T22:23:25.268Z,84.10
2022-09-12T22:25:55.477Z,84.15
2022-09-12T22:28:25.007Z,84.27
2022-09-12T22:30:53.920Z,84.47
2022-09-12T22:33:20.862Z,84.59
2022-09-12T22:35:47.919Z,84.68
2022-09-12T22:38:15.634Z,84.83
2022-09-12T22:40:42.473Z,84.94
2022-09-12T22:43:09.512Z,84.96
2022-09-12T22:45:35.987Z,85.01
2022-09-12T22:48:06.192Z,85.05
2022-09-12T22:50:35.937Z,85.20
2022-09-12T22:53:02.589Z,85.20
2022-09-12T22:55:29.471Z,85.16
2022-09-12T22:57:56.459Z,85.27
2022-09-12T23:00:23.816Z,85.24
2022-09-12T23:02:50.123Z,85.38
2022-09-12T23:05:16.721Z,85.47
2022-09-12T23:07:45.540Z,85.56
2022-09-12T23:10:12.753Z,85.64
2022-09-12T23:12:39.429Z,85.63
2022-09-12T23:15:08.377Z,85.71
2022-09-12T23:17:36.523Z,85.68
2022-09-12T23:20:04.515Z,85.71
2022-09-12T23:22:30.846Z,85.65
2022-09-12T23:24:57.669Z,85.73
2022-09-12T23:27:27.518Z,85.71
2022-09-12T23:29:54.607Z,85.56
2022-09-12T23:32:23.209Z,85.50
2022-09-12T23:34:50.227Z,85.28
2022-09-12T23:37:17.605Z,85.29
2022-09-12T23:39:44.611Z,85.26
2022-09-12T23:42:11.608Z,85.45
2022-09-12T23:44:38.895Z,85.49
2022-09-12T23:47:08.087Z,85.51
2022-09-12T23:49:35.343Z,85.75
2022-09-12T23:52:04.252Z,85.70
2022-09-12T23:54:30.865Z,85.51
2022-09-12T23:57:00.859Z,85.58
2022-09-12T23:59:32.433Z,85.62
